Time;durP1;ratioP1;P1;durP2;ratioP2;P2;SDS_P1;SDS_P2;PMS_P1;PMS_P2;Temp;Humidity;BMP_temperature;BMP_pressure;BME280_temperature;BME280_humidity;BME280_pressure;Samples;Min_cycle;Max_cycle;Signal;HPM_P1;HPM_P2
2022/09/14 00:02:38;;;;;;;14.83;8.83;;;;;;;14.20;82.09;99307.98;2210452;79;21033;-83
2022/09/14 00:05:40;;;;;;;14.78;8.53;;;;;;;14.21;82.17;99293.08;2211178;79;20998;-82
2022/09/14 00:08:43;;;;;;;16.07;8.63;;;;;;;14.18;82.27;99296.17;2206908;79;21496;-83
2022/09/14 00:11:45;;;;;;;12.55;7.60;;;;;;;14.19;82.34;99299.16;2212512;79;20983;-82
2022/09/14 00:14:46;;;;;;;13.18;7.75;;;;;;;14.17;82.36;99291.87;2211396;79;20985;-83
2022/09/14 00:17:48;;;;;;;9.35;8.10;;;;;;;14.16;82.39;99299.55;2209054;79;20947;-82
2022/09/14 00:20:49;;;;;;;11.68;8.85;;;;;;;14.16;82.31;99297.41;2213506;79;21049;-82
2022/09/14 00:23:50;;;;;;;11.15;8.33;;;;;;;14.15;82.34;99295.26;2210090;79;20994;-82
2022/09/14 00:26:52;;;;;;;16.75;8.05;;;;;;;14.11;82.30;99292.20;2211317;79;20961;-82
2022/09/14 00:29:54;;;;;;;10.60;8.40;;;;;;;14.11;82.44;99287.38;2211623;79;20961;-82
2022/09/14 00:32:55;;;;;;;10.30;8.78;;;;;;;14.11;82.46;99278.05;2211164;79;20989;-82
2022/09/14 00:36:07;;;;;;;15.03;9.08;;;;;;;14.11;82.56;99286.86;2211421;79;21017;-82
2022/09/14 00:39:09;;;;;;;13.60;8.63;;;;;;;14.13;82.79;99286.15;2210106;79;21010;-83
2022/09/14 00:42:18;;;;;;;10.20;8.33;;;;;;;14.14;82.75;99284.30;2205292;79;20962;-83
2022/09/14 00:45:21;;;;;;;13.48;8.58;;;;;;;14.13;82.76;99291.97;2206321;79;21484;-82
2022/09/14 00:48:25;;;;;;;11.12;7.87;;;;;;;14.09;82.79;99288.91;2208716;79;21032;-82
2022/09/14 00:51:32;;;;;;;12.80;8.23;;;;;;;14.06;82.95;99289.34;2211387;79;20959;-83
2022/09/14 00:54:37;;;;;;;10.58;8.73;;;;;;;14.06;83.15;99289.34;2211789;79;21060;-82
2022/09/14 00:57:49;;;;;;;12.45;8.30;;;;;;;14.11;83.33;99291.39;2210431;79;21026;-82
2022/09/14 01:00:50;;;;;;;9.75;7.17;;;;;;;14.14;83.42;99292.30;2211153;79;21477;-82
2022/09/14 01:03:52;;;;;;;14.95;9.13;;;;;;;14.15;83.51;99292.59;2211454;79;21563;-82
2022/09/14 01:07:10;;;;;;;15.72;8.70;;;;;;;14.15;83.55;99283.25;2211875;79;21460;-82
2022/09/14 01:10:32;;;;;;;9.80;8.78;;;;;;;14.16;83.69;99276.06;2209615;79;21136;-82
2022/09/14 01:13:36;;;;;;;;;;;;;;;14.17;83.72;99281.20;2214434;79;21025;-85
2022/09/14 01:17:07;;;;;;;12.28;8.63;;;;;;;14.18;83.74;99292.17;2212147;79;20224;-82
2022/09/14 01:20:35;;;;;;;10.32;7.87;;;;;;;14.12;83.64;99278.34;2213924;79;21021;-83
2022/09/14 01:24:20;;;;;;;10.70;8.60;;;;;;;14.09;83.77;99279.58;2211580;79;21029;-82
2022/09/14 01:27:40;;;;;;;11.12;8.40;;;;;;;14.05;83.63;99273.04;2190330;79;20967;-82
2022/09/14 01:30:41;;;;;;;15.10;8.13;;;;;;;14.02;83.53;99281.46;2210511;79;21563;-82
2022/09/14 01:33:57;;;;;;;13.48;8.65;;;;;;;13.98;83.50;99287.41;2209916;79;20981;-83
2022/09/14 01:37:12;;;;;;;15.05;9.08;;;;;;;13.96;83.52;99276.13;2191976;79;21058;-83
2022/09/14 01:40:35;;;;;;;12.58;9.68;;;;;;;13.94;83.62;99272.84;2213164;79;21005;-82
2022/09/14 01:43:54;;;;;;;12.28;9.70;;;;;;;13.93;83.64;99288.55;2213052;79;20994;-83
2022/09/14 01:47:04;;;;;;;15.40;10.43;;;;;;;13.90;83.66;99275.92;2212786;79;21559;-83
2022/09/14 01:50:10;;;;;;;16.62;10.15;;;;;;;13.90;83.83;99277.27;2210844;79;21297;-83
2022/09/14 01:53:29;;;;;;;12.55;9.63;;;;;;;13.88;83.76;99272.67;2215915;79;21442;-83
2022/09/14 01:56:36;;;;;;;14.70;10.72;;;;;;;13.89;83.83;99280.97;2216678;79;21042;-82
2022/09/14 01:59:42;;;;;;;14.65;11.57;;;;;;;13.88;83.87;99270.49;2219388;79;21045;-82
2022/09/14 02:02:52;;;;;;;13.03;11.60;;;;;;;13.84;84.04;99255.44;2234382;78;22268;-82
2022/09/14 02:06:10;;;;;;;15.18;11.05;;;;;;;13.85;84.29;99264.25;2236007;78;21126;-85
2022/09/14 02:09:20;;;;;;;15.23;9.68;;;;;;;13.85;84.23;99266.42;2228920;78;21509;-83
2022/09/14 02:12:21;;;;;;;13.50;10.00;;;;;;;13.84;84.12;99263.44;2232547;78;21491;-83
2022/09/14 02:15:25;;;;;;;16.93;11.57;;;;;;;13.81;83.82;99248.38;2232837;78;21143;-83
2022/09/14 02:18:26;;;;;;;15.00;11.18;;;;;;;13.80;84.21;99246.23;2233537;78;21674;-83
2022/09/14 02:21:31;;;;;;;15.13;11.00;;;;;;;13.78;84.10;99258.94;2212749;78;21427;-83
2022/09/14 02:24:34;;;;;;;18.42;10.15;;;;;;;13.77;84.16;99251.98;2232776;78;21038;-83
2022/09/14 02:27:35;;;;;;;12.78;10.58;;;;;;;13.76;84.21;99250.32;2233239;78;21442;-83
2022/09/14 02:30:54;;;;;;;15.15;9.30;;;;;;;13.76;84.06;99250.84;2232700;78;21527;-83
2022/09/14 02:34:21;;;;;;;12.13;9.85;;;;;;;13.73;84.01;99249.41;2233234;79;21553;-83
2022/09/14 02:37:49;;;;;;;11.85;9.75;;;;;;;13.71;84.02;99246.64;2208030;78;21040;-83
2022/09/14 02:41:19;;;;;;;11.15;9.83;;;;;;;13.69;84.05;99252.20;2233504;78;21072;-83
2022/09/14 02:44:48;;;;;;;12.07;9.83;;;;;;;13.64;83.92;99238.15;2224438;78;21054;-83
2022/09/14 02:48:08;;;;;;;16.27;11.05;;;;;;;13.64;83.97;99231.48;2221499;78;20954;-84
2022/09/14 02:51:38;;;;;;;11.38;9.60;;;;;;;13.61;84.21;99232.42;2227032;78;21124;-83
2022/09/14 02:54:57;;;;;;;13.30;10.72;;;;;;;13.59;84.08;99237.13;2235039;78;20974;-83
2022/09/14 02:58:12;;;;;;;13.70;11.15;;;;;;;13.57;84.26;99233.84;2234265;78;20942;-83
2022/09/14 03:01:18;;;;;;;13.58;12.18;;;;;;;13.55;84.27;99230.59;2219748;79;20986;-83
2022/09/14 03:04:19;;;;;;;13.68;11.05;;;;;;;13.53;84.57;99236.64;2206442;79;21448;-83
2022/09/14 03:07:20;;;;;;;12.63;11.08;;;;;;;13.47;84.68;99233.47;2213819;79;21045;-83
2022/09/14 03:10:22;;;;;;;13.75;9.98;;;;;;;13.46;85.00;99239.32;2214538;79;21009;-84
2022/09/14 03:13:24;;;;;;;16.30;10.28;;;;;;;13.47;84.89;99240.13;2211156;79;21024;-83
2022/09/14 03:16:26;;;;;;;17.45;12.75;;;;;;;13.48;85.07;99249.76;2206869;79;21571;-83
2022/09/14 03:19:27;;;;;;;14.07;12.00;;;;;;;13.52;85.30;99246.48;2213882;79;21028;-82
2022/09/14 03:22:28;;;;;;;14.80;11.18;;;;;;;13.55;85.33;99246.06;2215024;79;20947;-83
2022/09/14 03:25:30;;;;;;;20.45;12.18;;;;;;;13.54;85.36;99241.74;2210985;79;21017;-82
2022/09/14 03:28:32;;;;;;;19.87;13.08;;;;;;;13.57;85.48;99246.69;2210792;79;20974;-83
2022/09/14 03:31:34;;;;;;;21.05;13.98;;;;;;;13.59;85.63;99242.47;2212704;79;20983;-83
2022/09/14 03:34:35;;;;;;;16.37;13.88;;;;;;;13.62;85.83;99242.86;2210748;79;20975;-82
2022/09/14 03:37:39;;;;;;;21.33;14.10;;;;;;;13.66;85.88;99240.63;2215181;79;20951;-83
2022/09/14 03:40:40;;;;;;;19.37;14.60;;;;;;;13.69;85.92;99234.88;2211934;79;21028;-83
2022/09/14 03:43:43;;;;;;;16.17;14.03;;;;;;;13.70;86.01;99231.69;2211525;79;21060;-83
2022/09/14 03:46:44;;;;;;;18.23;13.75;;;;;;;13.67;85.91;99235.06;2213159;79;21029;-84
2022/09/14 03:49:46;;;;;;;17.07;13.83;;;;;;;13.67;85.93;99238.25;2213617;79;20927;-83
2022/09/14 03:52:47;;;;;;;15.95;12.70;;;;;;;13.66;85.92;99235.29;2212230;79;21026;-83
2022/09/14 03:55:49;;;;;;;18.02;13.80;;;;;;;13.63;85.79;99225.05;2211361;79;21057;-83
2022/09/14 03:58:50;;;;;;;15.93;14.03;;;;;;;13.61;86.01;99219.09;2212392;79;21038;-85
2022/09/14 04:01:52;;;;;;;17.62;15.08;;;;;;;13.62;85.93;99222.87;2229678;78;21509;-83
2022/09/14 04:04:53;;;;;;;17.37;13.72;;;;;;;13.63;85.97;99217.86;2234346;78;22072;-85
2022/09/14 04:07:54;;;;;;;15.35;11.88;;;;;;;13.62;85.92;99210.88;2232253;79;20989;-83
2022/09/14 04:10:56;;;;;;;16.15;13.58;;;;;;;13.60;85.78;99213.44;2231916;78;20980;-83
2022/09/14 04:14:06;;;;;;;17.73;13.03;;;;;;;13.60;85.60;99224.95;2235077;78;21029;-83
2022/09/14 04:17:07;;;;;;;14.10;12.60;;;;;;;13.58;85.51;99228.33;2231082;78;21026;-83
2022/09/14 04:20:09;;;;;;;23.20;15.85;;;;;;;13.56;85.49;99228.22;2234876;78;21504;-83
2022/09/14 04:23:11;;;;;;;19.90;14.53;;;;;;;13.54;85.92;99223.09;2240166;78;22189;-82
2022/09/14 04:26:16;;;;;;;15.95;14.25;;;;;;;13.56;86.02;99232.22;2235766;78;20976;-80
2022/09/14 04:29:18;;;;;;;16.45;13.22;;;;;;;13.57;86.10;99236.52;2234921;78;21060;-82
2022/09/14 04:32:19;;;;;;;17.07;13.55;;;;;;;13.55;85.90;99234.59;2219079;78;21036;-82
2022/09/14 04:35:21;;;;;;;15.83;13.08;;;;;;;13.51;85.81;99238.68;2240441;78;21487;-82
2022/09/14 04:38:23;;;;;;;15.45;12.00;;;;;;;13.47;85.73;99238.80;2238766;78;20989;-82
2022/09/14 04:41:26;;;;;;;16.42;12.53;;;;;;;13.41;85.43;99231.13;2234400;78;21044;-83
2022/09/14 04:44:27;;;;;;;17.30;12.25;;;;;;;13.38;85.74;99235.02;2220424;78;22198;-83
2022/09/14 04:47:28;;;;;;;16.85;14.58;;;;;;;13.34;85.53;99225.78;2237601;78;20989;-84
2022/09/14 04:50:31;;;;;;;18.25;12.75;;;;;;;13.28;85.87;99223.94;2235752;78;21061;-84
2022/09/14 04:53:37;;;;;;;16.15;11.95;;;;;;;13.27;85.95;99230.31;2239209;78;21024;-84
2022/09/14 04:56:39;;;;;;;17.23;11.73;;;;;;;13.29;85.83;99240.25;2238339;78;21496;-84
2022/09/14 04:59:40;;;;;;;15.30;11.22;;;;;;;13.29;85.74;99236.26;2239568;78;21058;-82
2022/09/14 05:02:42;;;;;;;15.03;10.95;;;;;;;13.29;85.75;99245.59;2218255;78;20969;-84
2022/09/14 05:05:43;;;;;;;17.12;10.48;;;;;;;13.30;85.69;99239.22;2220474;79;20958;-84
2022/09/14 05:08:46;;;;;;;16.80;11.40;;;;;;;13.30;85.49;99243.22;2219202;79;20948;-86
2022/09/14 05:11:50;;;;;;;13.15;11.10;;;;;;;13.33;85.69;99241.47;2214634;79;21017;-86
2022/09/14 05:14:51;;;;;;;13.43;11.93;;;;;;;13.38;85.56;99240.86;2185877;79;21446;-85
2022/09/14 05:17:52;;;;;;;14.00;12.47;;;;;;;13.40;85.67;99227.64;2210558;79;21021;-84
2022/09/14 05:20:53;;;;;;;16.27;11.97;;;;;;;13.46;85.83;99220.67;2214747;79;21058;-83
2022/09/14 05:23:59;;;;;;;17.05;11.83;;;;;;;13.52;85.84;99236.34;2215005;79;21049;-85
2022/09/14 05:27:01;;;;;;;17.95;13.90;;;;;;;13.61;86.08;99236.42;2216130;79;20994;-85
2022/09/14 05:30:02;;;;;;;13.62;12.15;;;;;;;13.73;86.41;99225.94;2209121;79;21068;-84
2022/09/14 05:33:04;;;;;;;16.95;11.85;;;;;;;13.88;86.66;99230.01;2158195;79;21061;-84
2022/09/14 05:36:07;;;;;;;14.53;12.65;;;;;;;14.02;86.62;99226.78;2218199;79;20986;-85
2022/09/14 05:39:10;;;;;;;14.18;12.07;;;;;;;14.15;86.64;99232.56;2213413;79;21096;-84
2022/09/14 05:42:11;;;;;;;14.13;12.20;;;;;;;14.22;86.52;99229.86;2211209;79;21048;-84
2022/09/14 05:45:13;;;;;;;16.23;11.70;;;;;;;14.24;86.48;99237.96;2211584;79;21001;-84
2022/09/14 05:48:15;;;;;;;14.18;12.68;;;;;;;14.28;86.60;99237.86;2216652;79;21497;-84
2022/09/14 05:51:21;;;;;;;17.48;13.95;;;;;;;14.29;86.57;99235.48;2213196;79;21525;-83
2022/09/14 05:54:22;;;;;;;17.25;14.90;;;;;;;14.35;86.70;99235.95;2219769;79;21047;-84
2022/09/14 05:57:24;;;;;;;15.80;14.07;;;;;;;14.41;86.81;99232.14;2217206;79;21077;-84
2022/09/14 06:00:26;;;;;;;19.82;14.13;;;;;;;14.47;86.89;99242.80;2215078;79;21137;-83
2022/09/14 06:03:28;;;;;;;19.92;14.40;;;;;;;14.51;86.85;99235.99;2215244;79;21045;-83
2022/09/14 06:06:31;;;;;;;16.93;14.15;;;;;;;14.55;86.92;99225.20;2220008;79;21045;-83
2022/09/14 06:09:35;;;;;;;16.30;14.40;;;;;;;14.60;86.95;99231.77;2211196;79;21046;-86
2022/09/14 06:12:37;;;;;;;18.62;15.30;;;;;;;14.66;87.03;99242.92;2218559;79;20950;-84
2022/09/14 06:15:38;;;;;;;17.17;14.78;;;;;;;14.73;87.07;99231.18;2215187;79;21008;-85
2022/09/14 06:18:41;;;;;;;18.82;14.70;;;;;;;14.78;87.03;99224.68;2216892;79;20951;-84
2022/09/14 06:21:42;;;;;;;20.77;14.85;;;;;;;14.83;87.03;99229.88;2219195;79;21053;-84
2022/09/14 06:24:44;;;;;;;19.23;16.07;;;;;;;14.89;87.07;99235.69;2194854;79;20977;-83
2022/09/14 06:27:45;;;;;;;17.60;15.23;;;;;;;14.94;87.05;99233.19;2215597;79;20998;-85
2022/09/14 06:30:47;;;;;;;21.80;15.43;;;;;;;15.01;87.11;99232.11;2217505;79;21025;-83
2022/09/14 06:33:50;;;;;;;20.85;16.32;;;;;;;15.07;87.11;99235.77;2190520;79;21036;-83
2022/09/14 06:36:51;;;;;;;19.70;16.55;;;;;;;15.17;87.18;99232.59;2220243;79;21457;-83
2022/09/14 06:39:53;;;;;;;23.32;17.27;;;;;;;15.29;87.22;99234.88;2217550;79;20994;-83
2022/09/14 06:42:56;;;;;;;22.05;16.45;;;;;;;15.40;87.05;99234.16;2211216;79;20997;-83
2022/09/14 06:46:02;;;;;;;22.17;16.00;;;;;;;15.56;87.22;99234.62;2192161;79;21042;-84
2022/09/14 06:49:11;;;;;;;20.72;15.93;;;;;;;15.82;87.33;99232.22;2218721;79;21009;-83
2022/09/14 06:52:12;;;;;;;21.52;14.83;;;;;;;16.17;87.53;99238.33;2216907;79;20990;-83
2022/09/14 06:55:14;;;;;;;17.45;15.08;;;;;;;16.57;87.32;99232.73;2215427;79;20950;-83
2022/09/14 06:58:16;;;;;;;19.07;15.28;;;;;;;16.91;86.80;99235.78;2207463;79;21030;-83
2022/09/14 07:01:19;;;;;;;17.25;14.43;;;;;;;17.16;86.05;99242.83;2229985;78;20954;-84
2022/09/14 07:04:21;;;;;;;16.42;14.10;;;;;;;17.27;85.40;99233.98;2236892;78;21114;-83
2022/09/14 07:07:24;;;;;;;18.27;14.05;;;;;;;17.39;84.79;99240.70;2210618;78;21524;-83
2022/09/14 07:10:27;;;;;;;16.35;13.08;;;;;;;17.38;84.29;99230.50;2237919;78;21441;-85
2022/09/14 07:13:30;;;;;;;19.17;15.40;;;;;;;17.42;84.17;99226.81;2237095;78;21097;-83
2022/09/14 07:16:33;;;;;;;18.77;14.35;;;;;;;17.35;83.34;99226.13;2230873;78;21001;-83
2022/09/14 07:19:35;;;;;;;17.40;14.70;;;;;;;17.30;83.48;99222.80;2235631;78;21033;-83
2022/09/14 07:22:36;;;;;;;14.75;12.73;;;;;;;17.35;83.44;99228.81;2234128;78;21033;-83
2022/09/14 07:25:38;;;;;;;26.55;14.70;;;;;;;17.37;83.29;99239.60;2237698;78;21012;-83
2022/09/14 07:28:41;;;;;;;19.82;13.45;;;;;;;17.41;83.04;99237.27;2237712;78;21537;-84
2022/09/14 07:31:47;;;;;;;16.95;12.75;;;;;;;17.48;83.08;99241.47;2239546;78;21445;-84
2022/09/14 07:34:49;;;;;;;16.62;12.85;;;;;;;17.51;82.57;99238.82;2233234;78;20958;-83
2022/09/14 07:37:51;;;;;;;18.02;11.88;;;;;;;17.55;82.52;99240.53;2236031;78;21111;-83
2022/09/14 07:40:56;;;;;;;17.57;10.85;;;;;;;17.54;82.27;99241.56;2239162;78;21024;-84
2022/09/14 07:44:00;;;;;;;17.00;9.40;;;;;;;17.64;81.94;99243.95;2238876;78;21036;-83
2022/09/14 07:47:01;;;;;;;12.53;9.78;;;;;;;17.73;81.82;99235.03;2217271;78;21024;-83
2022/09/14 07:50:04;;;;;;;14.18;8.50;;;;;;;17.84;81.45;99232.08;2234263;78;20949;-83
2022/09/14 07:53:05;;;;;;;11.93;8.58;;;;;;;17.89;80.73;99234.88;2233819;78;21012;-83
2022/09/14 07:56:09;;;;;;;12.30;8.55;;;;;;;17.97;80.26;99219.75;2237059;78;21429;-83
2022/09/14 07:59:17;;;;;;;11.50;8.28;;;;;;;18.03;80.16;99222.02;2233276;78;21022;-83
2022/09/14 08:02:17;;;;;;;10.75;8.45;;;;;;;18.08;79.67;99220.25;2232157;78;20997;-83
2022/09/14 08:05:19;;;;;;;13.78;8.30;;;;;;;18.16;79.38;99227.12;2233869;78;21508;-83
2022/09/14 08:08:20;;;;;;;13.83;8.48;;;;;;;18.15;79.34;99220.91;2238092;78;21016;-83
2022/09/14 08:11:29;;;;;;;13.65;7.58;;;;;;;18.22;79.07;99235.56;2237453;78;20985;-83
2022/09/14 08:14:30;;;;;;;11.60;6.78;;;;;;;18.30;79.03;99237.88;2237728;78;21024;-85
2022/09/14 08:17:32;;;;;;;11.25;6.75;;;;;;;18.33;78.46;99226.66;2233248;78;21008;-83
2022/09/14 08:20:33;;;;;;;10.65;6.42;;;;;;;18.37;78.02;99226.98;2234212;78;22196;-83
2022/09/14 08:23:37;;;;;;;10.23;6.20;;;;;;;18.42;77.98;99223.59;2232332;78;21064;-83
2022/09/14 08:26:39;;;;;;;15.78;5.75;;;;;;;18.48;77.59;99223.97;2237123;78;21490;-84
2022/09/14 08:29:40;;;;;;;8.68;5.37;;;;;;;18.54;77.51;99221.13;2240651;78;20968;-87
2022/09/14 08:32:42;;;;;;;9.00;5.42;;;;;;;18.64;77.14;99219.67;2243772;78;21047;-85
2022/09/14 08:35:44;;;;;;;8.38;5.20;;;;;;;18.64;76.79;99217.83;2241107;78;20941;-88
2022/09/14 08:38:46;;;;;;;8.18;4.97;;;;;;;18.75;76.63;99219.67;2239553;78;21442;-87
2022/09/14 08:41:58;;;;;;;8.88;5.20;;;;;;;18.79;76.31;99214.09;2236923;78;20981;-87
2022/09/14 08:45:04;;;;;;;16.75;5.35;;;;;;;18.83;75.78;99212.25;2243198;78;20994;-87
2022/09/14 08:48:23;;;;;;;11.03;5.17;;;;;;;18.84;75.52;99205.31;2246185;78;20946;-87
2022/09/14 08:51:27;;;;;;;10.82;5.30;;;;;;;18.91;75.40;99205.14;2242313;78;21022;-87
2022/09/14 08:54:37;;;;;;;7.92;5.08;;;;;;;18.94;75.11;99208.15;2236747;78;21061;-87
2022/09/14 08:58:06;;;;;;;10.78;4.83;;;;;;;19.02;75.18;99210.97;2239186;78;21532;-89
2022/09/14 09:01:36;;;;;;;9.08;4.58;;;;;;;19.07;74.53;99208.91;2223323;78;21058;-88
2022/09/14 09:04:55;;;;;;;13.22;4.80;;;;;;;19.06;74.20;99202.69;2234070;78;20965;-88
2022/09/14 09:08:05;;;;;;;9.28;4.17;;;;;;;19.07;73.64;99204.34;2240429;78;21000;-87
2022/09/14 09:11:14;;;;;;;8.25;4.12;;;;;;;19.04;73.57;99198.11;2236293;78;20938;-88
2022/09/14 09:14:36;;;;;;;12.25;4.12;;;;;;;19.11;73.65;99206.81;2235069;78;21547;-88
2022/09/14 09:17:46;;;;;;;10.38;4.97;;;;;;;19.14;73.22;99202.28;2238226;78;21547;-88
2022/09/14 09:20:55;;;;;;;9.48;4.42;;;;;;;19.20;72.96;99200.48;2239493;78;21108;-88
2022/09/14 09:24:27;;;;;;;7.75;3.67;;;;;;;19.30;73.04;99203.88;2239986;78;21461;-88
2022/09/14 09:27:28;;;;;;;6.55;4.20;;;;;;;19.42;72.75;99208.63;2240447;78;21017;-87
2022/09/14 09:30:30;;;;;;;8.13;3.65;;;;;;;19.54;72.40;99204.48;2236978;78;21498;-87
2022/09/14 09:33:41;;;;;;;6.75;3.77;;;;;;;19.81;72.31;99205.97;2237146;78;21037;-88
2022/09/14 09:37:00;;;;;;;11.33;4.05;;;;;;;20.00;71.77;99207.84;2235203;78;21041;-88
2022/09/14 09:40:09;;;;;;;7.35;3.42;;;;;;;20.15;71.14;99210.16;2236332;78;21069;-88
2022/09/14 09:43:15;;;;;;;6.17;3.52;;;;;;;20.15;71.08;99204.77;2238403;78;21020;-89
2022/09/14 09:46:18;;;;;;;9.80;4.65;;;;;;;20.23;70.71;99214.30;2234687;78;21496;-89
2022/09/14 09:49:31;;;;;;;7.92;4.40;;;;;;;20.21;69.93;99208.34;2240825;78;21035;-88
2022/09/14 09:52:33;;;;;;;6.95;4.37;;;;;;;20.15;69.59;99212.85;2241130;78;21472;-88
2022/09/14 09:55:50;;;;;;;6.92;4.50;;;;;;;20.14;69.54;99209.08;2209248;78;21048;-89
2022/09/14 09:58:54;;;;;;;9.00;4.50;;;;;;;20.07;69.50;99203.87;2232357;78;20994;-88
2022/09/14 10:02:23;;;;;;;6.45;4.30;;;;;;;19.99;69.10;99210.23;2231661;78;21068;-88
2022/09/14 10:05:30;;;;;;;7.70;3.85;;;;;;;19.88;69.06;99202.58;2239660;78;21103;-88
2022/09/14 10:08:42;;;;;;;11.10;4.53;;;;;;;19.87;69.43;99200.93;2240796;78;21067;-88
2022/09/14 10:11:49;;;;;;;8.73;4.17;;;;;;;19.89;69.17;99200.16;2236388;78;21028;-88
2022/09/14 10:15:18;;;;;;;9.83;4.90;;;;;;;19.92;69.27;99195.08;2222818;78;21065;-88
2022/09/14 10:18:23;;;;;;;7.28;4.70;;;;;;;19.97;68.92;99194.34;2231610;78;20967;-88
2022/09/14 10:21:25;;;;;;;7.35;4.15;;;;;;;20.06;68.75;99195.52;2236584;78;21002;-89
2022/09/14 10:24:34;;;;;;;8.95;4.33;;;;;;;20.12;68.55;99193.16;2238889;78;21100;-89
2022/09/14 10:27:58;;;;;;;7.97;4.25;;;;;;;20.16;67.85;99189.45;2239624;78;21009;-88
2022/09/14 10:31:30;;;;;;;6.83;3.90;;;;;;;20.18;68.25;99186.49;2235786;78;20993;-85
2022/09/14 10:34:40;;;;;;;6.15;3.60;;;;;;;20.28;68.02;99190.66;2232372;78;20967;-89
2022/09/14 10:38:10;;;;;;;9.73;4.15;;;;;;;20.25;67.88;99187.13;2237866;78;20969;-89
2022/09/14 10:41:44;;;;;;;11.00;3.47;;;;;;;20.24;67.88;99183.59;2167085;80;20988;-88
2022/09/14 10:45:13;;;;;;;8.50;3.92;;;;;;;20.22;67.50;99180.90;2234636;78;21063;-88
2022/09/14 10:48:42;;;;;;;8.03;3.95;;;;;;;20.11;67.32;99184.81;2241335;78;21513;-87
2022/09/14 10:52:19;;;;;;;6.28;3.98;;;;;;;20.09;67.56;99190.97;2237792;78;21550;-88
2022/09/14 10:55:55;;;;;;;9.13;4.00;;;;;;;20.02;67.43;99189.02;2240409;78;21005;-88
2022/09/14 10:59:22;;;;;;;7.55;4.05;;;;;;;19.94;67.78;99192.15;2211573;78;21045;-84
2022/09/14 11:02:58;;;;;;;10.43;4.30;;;;;;;19.86;67.66;99189.89;2218942;78;21176;-86
2022/09/14 11:06:08;;;;;;;9.78;4.47;;;;;;;19.82;67.86;99185.55;2177214;80;21350;-87
2022/09/14 11:09:27;;;;;;;6.20;3.87;;;;;;;19.90;67.75;99178.36;2181461;80;21064;-87
2022/09/14 11:12:43;;;;;;;8.23;4.62;;;;;;;20.00;67.90;99174.98;2180155;80;21005;-86
2022/09/14 11:15:57;;;;;;;10.15;5.30;;;;;;;20.03;67.40;99163.71;2181381;80;20982;-87
2022/09/14 11:19:24;;;;;;;7.03;4.58;;;;;;;20.08;67.76;99158.93;2183089;80;20975;-84
2022/09/14 11:23:09;;;;;;;7.37;4.55;;;;;;;20.27;67.93;99159.38;2176599;80;21053;-73
2022/09/14 11:26:39;;;;;;;8.18;4.90;;;;;;;20.38;67.46;99157.07;2182864;80;21041;-74
2022/09/14 11:29:49;;;;;;;9.18;4.85;;;;;;;20.43;67.11;99154.44;2185157;80;21084;-70
2022/09/14 11:33:02;;;;;;;9.53;5.58;;;;;;;20.46;66.95;99155.81;2179472;80;21461;-72
2022/09/14 11:36:18;;;;;;;6.08;4.20;;;;;;;20.51;66.79;99148.59;2181599;80;21002;-70
2022/09/14 11:39:25;;;;;;;11.57;5.42;;;;;;;20.59;66.87;99148.16;2183275;80;21060;-71
2022/09/14 11:42:49;;;;;;;9.40;5.15;;;;;;;20.59;66.52;99143.31;2150095;80;20986;-71
2022/09/14 11:46:01;;;;;;;7.97;5.33;;;;;;;20.64;66.76;99143.87;2154374;80;21432;-72
2022/09/14 11:49:41;;;;;;;14.63;5.40;;;;;;;20.70;66.51;99141.52;2179085;80;21033;-73
2022/09/14 11:52:42;;;;;;;;;;;;;;;20.69;66.45;99139.87;2179139;80;21078;-73
2022/09/14 11:55:47;;;;;;;11.18;6.17;;;;;;;20.71;66.17;99135.86;2180444;80;21064;-71
2022/09/14 11:58:49;;;;;;;9.83;4.80;;;;;;;20.77;66.16;99132.67;2180439;80;21021;-71
2022/09/14 12:01:50;;;;;;;7.00;4.80;;;;;;;20.80;65.98;99134.30;2178270;78;20942;-71
2022/09/14 12:05:14;;;;;;;9.98;5.00;;;;;;;20.79;66.02;99133.23;2215643;79;21058;-75
2022/09/14 12:08:36;;;;;;;5.92;4.37;;;;;;;20.76;65.51;99125.13;2214822;79;20989;-71
2022/09/14 12:11:38;;;;;;;7.90;4.62;;;;;;;20.51;65.97;99123.53;2218052;79;21019;-76
2022/09/14 12:14:43;;;;;;;7.12;4.78;;;;;;;20.53;66.22;99122.23;2211048;79;20927;-74
2022/09/14 12:17:44;;;;;;;6.60;4.50;;;;;;;20.61;66.43;99118.27;2217118;79;21502;-71
2022/09/14 12:21:02;;;;;;;12.63;5.10;;;;;;;20.68;66.22;99123.44;2217490;79;20986;-72
2022/09/14 12:24:09;;;;;;;8.70;5.12;;;;;;;20.77;66.41;99131.31;2215135;79;21021;-71
2022/09/14 12:27:21;;;;;;;8.83;4.17;;;;;;;20.91;66.30;99130.35;2209246;79;21576;-71
2022/09/14 12:30:44;;;;;;;7.00;5.00;;;;;;;21.09;66.25;99127.77;2211621;79;21025;-71
2022/09/14 12:34:09;;;;;;;9.25;4.90;;;;;;;21.22;65.89;99118.69;2215975;79;22013;-72
2022/09/14 12:37:31;;;;;;;8.98;4.62;;;;;;;21.36;65.57;99122.28;2212509;79;20971;-70
2022/09/14 12:40:37;;;;;;;9.90;5.20;;;;;;;21.45;65.40;99122.88;2210649;79;21567;-75
2022/09/14 12:43:44;;;;;;;13.15;5.97;;;;;;;21.41;64.49;99124.50;2222135;79;20952;-72
2022/09/14 12:46:45;;;;;;;8.98;5.08;;;;;;;21.27;64.87;99124.12;2217641;79;20924;-71
2022/09/14 12:49:47;;;;;;;8.28;5.00;;;;;;;21.40;65.10;99124.75;2223254;79;21025;-70
2022/09/14 12:53:12;;;;;;;9.43;5.10;;;;;;;21.48;64.88;99114.30;2220578;79;20963;-71
2022/09/14 12:56:19;;;;;;;5.90;5.30;;;;;;;21.50;64.59;99103.22;2212636;79;20981;-72
2022/09/14 12:59:34;;;;;;;12.53;5.45;;;;;;;21.61;64.56;99093.28;2212082;79;21002;-71
2022/09/14 13:02:59;;;;;;;7.33;4.78;;;;;;;21.65;64.57;99093.02;2222191;79;21052;-71
2022/09/14 13:06:02;;;;;;;9.05;5.75;;;;;;;21.64;64.60;99103.01;2217916;79;21045;-71
2022/09/14 13:09:04;;;;;;;13.15;6.15;;;;;;;21.57;64.51;99097.06;2219094;79;21008;-77
2022/09/14 13:12:09;;;;;;;5.67;5.12;;;;;;;21.55;64.42;99083.01;2210540;79;21029;-71
2022/09/14 13:15:19;;;;;;;6.42;4.90;;;;;;;21.49;64.38;99069.22;2214946;79;22389;-71
2022/09/14 13:18:29;;;;;;;7.65;5.30;;;;;;;21.42;64.50;99066.75;2190778;79;21021;-72
2022/09/14 13:21:31;;;;;;;5.45;4.83;;;;;;;21.36;64.50;99071.02;2222098;79;21009;-71
2022/09/14 13:24:44;;;;;;;8.00;5.53;;;;;;;21.25;64.70;99076.89;2213104;79;20962;-71
2022/09/14 13:27:48;;;;;;;8.38;4.97;;;;;;;21.08;64.87;99077.61;2221393;79;21006;-72
2022/09/14 13:30:56;;;;;;;8.48;4.85;;;;;;;21.01;64.97;99071.92;2213421;79;21417;-72
2022/09/14 13:33:59;;;;;;;11.73;4.85;;;;;;;20.99;65.34;99056.52;2212154;79;20950;-71
2022/09/14 13:37:02;;;;;;;10.43;6.65;;;;;;;20.98;65.49;99056.27;2217371;79;21010;-71
2022/09/14 13:40:06;;;;;;;15.30;6.53;;;;;;;20.85;65.22;99049.97;2213477;79;20971;-73
2022/09/14 13:43:08;;;;;;;11.55;6.47;;;;;;;20.73;65.51;99049.36;2217697;79;20990;-71
2022/09/14 13:46:11;;;;;;;7.30;6.12;;;;;;;20.73;65.65;99040.73;2213610;79;20989;-72
2022/09/14 13:49:12;;;;;;;11.50;6.53;;;;;;;20.71;65.67;99042.06;2218183;79;21014;-71
2022/09/14 13:52:22;;;;;;;11.53;8.08;;;;;;;20.70;65.78;99038.56;2220089;79;21053;-73
2022/09/14 13:55:34;;;;;;;9.20;6.80;;;;;;;20.54;65.60;99038.97;2216413;79;21014;-77
2022/09/14 13:58:35;;;;;;;10.53;7.03;;;;;;;20.37;65.95;99039.62;2216123;79;21320;-71
2022/09/14 14:01:54;;;;;;;12.33;8.30;;;;;;;20.28;66.30;99037.12;2211467;79;21029;-71
2022/09/14 14:04:55;;;;;;;10.78;8.25;;;;;;;20.21;66.20;99032.48;2212096;79;20995;-72
2022/09/14 14:08:00;;;;;;;9.83;7.90;;;;;;;20.10;66.33;99022.14;2216513;79;21037;-70
2022/09/14 14:11:06;;;;;;;12.63;8.23;;;;;;;20.08;66.66;99017.56;2215537;79;20967;-70
2022/09/14 14:14:24;;;;;;;10.55;8.40;;;;;;;20.09;66.98;99015.14;2215180;79;21005;-70
2022/09/14 14:17:36;;;;;;;12.20;7.87;;;;;;;20.11;66.91;99019.75;2214353;79;21045;-72
2022/09/14 14:20:38;;;;;;;10.18;8.85;;;;;;;20.08;67.13;99016.22;2217185;79;21551;-72
2022/09/14 14:23:42;;;;;;;14.58;8.45;;;;;;;20.08;67.05;99016.22;2213163;79;20955;-73
2022/09/14 14:26:53;;;;;;;10.15;7.97;;;;;;;20.07;67.10;99010.54;2212561;79;21319;-71
2022/09/14 14:29:56;;;;;;;10.13;8.38;;;;;;;20.05;67.08;99009.46;2218459;79;21045;-76
2022/09/14 14:32:59;;;;;;;12.65;8.83;;;;;;;20.04;67.01;99009.16;2217621;79;20999;-71
2022/09/14 14:36:08;;;;;;;10.50;8.00;;;;;;;20.11;67.24;99009.78;2222660;79;20975;-72